Time;durP1;ratioP1;P1;durP2;ratioP2;P2;SDS_P1;SDS_P2;PMS_P1;PMS_P2;Temp;Humidity;BMP_temperature;BMP_pressure;BME280_temperature;BME280_humidity;BME280_pressure;Samples;Min_cycle;Max_cycle;Signal;HPM_P1;HPM_P2
2021/09/06 00:02:12;;;;;;;26.00;19.30;;;;;;;;;;5014719;28;20196;-71
2021/09/06 00:04:40;;;;;;;25.13;19.63;;;;;;;;;;5015267;28;20219;-71
2021/09/06 00:07:07;;;;;;;26.50;20.87;;;;;;;;;;5014796;28;20228;-71
2021/09/06 00:09:35;;;;;;;30.90;21.23;;;;;;;;;;5015306;28;20219;-71
2021/09/06 00:12:01;;;;;;;28.37;20.77;;;;;;;;;;5014014;28;20222;-71
2021/09/06 00:14:28;;;;;;;27.47;21.50;;;;;;;;;;5015744;28;20223;-71
2021/09/06 00:16:54;;;;;;;31.20;22.77;;;;;;;;;;5016235;28;20294;-71
2021/09/06 00:19:23;;;;;;;26.27;21.30;;;;;;;;;;5014457;28;20263;-71
2021/09/06 00:21:50;;;;;;;29.77;20.20;;;;;;;;;;5014666;28;20227;-72
2021/09/06 00:24:17;;;;;;;28.90;20.53;;;;;;;;;;5014032;28;20678;-72
2021/09/06 00:26:44;;;;;;;26.03;19.30;;;;;;;;;;5014748;28;20223;-71
2021/09/06 00:29:10;;;;;;;29.03;20.53;;;;;;;;;;5013252;28;20717;-71
2021/09/06 00:31:37;;;;;;;27.27;21.10;;;;;;;;;;5015047;28;20723;-71
2021/09/06 00:34:03;;;;;;;32.07;21.83;;;;;;;;;;5014753;28;20643;-71
2021/09/06 00:36:29;;;;;;;30.60;23.63;;;;;;;;;;5013684;28;20286;-71
2021/09/06 00:38:56;;;;;;;33.37;22.97;;;;;;;;;;5014720;28;20216;-71
2021/09/06 00:41:24;;;;;;;29.77;22.10;;;;;;;;;;5014505;28;20223;-71
2021/09/06 00:43:52;;;;;;;31.50;23.07;;;;;;;;;;5015498;28;20214;-72
2021/09/06 00:46:19;;;;;;;34.77;22.60;;;;;;;;;;5013823;28;20216;-71
2021/09/06 00:48:46;;;;;;;33.70;23.53;;;;;;;;;;5015408;28;20701;-71
2021/09/06 00:51:12;;;;;;;31.23;22.83;;;;;;;;;;5014738;28;20262;-71
2021/09/06 00:53:38;;;;;;;27.43;20.97;;;;;;;;;;5014579;28;20592;-71
2021/09/06 00:56:05;;;;;;;35.87;23.63;;;;;;;;;;5016144;28;20228;-71
2021/09/06 00:58:33;;;;;;;31.73;22.00;;;;;;;;;;5013864;28;20327;-72
2021/09/06 01:00:59;;;;;;;31.13;22.93;;;;;;;;;;5014363;28;20216;-72
2021/09/06 01:03:25;;;;;;;36.97;22.87;;;;;;;;;;5015439;28;20216;-71
2021/09/06 01:05:52;;;;;;;30.43;22.10;;;;;;;;;;5014152;28;21227;-71
2021/09/06 01:08:18;;;;;;;28.90;22.30;;;;;;;;;;5013566;28;20208;-71
2021/09/06 01:10:45;;;;;;;32.07;23.53;;;;;;;;;;5014720;28;20260;-71
2021/09/06 01:13:11;;;;;;;31.33;23.77;;;;;;;;;;5012959;28;20743;-71
2021/09/06 01:15:39;;;;;;;35.17;23.63;;;;;;;;;;5013581;28;20652;-71
2021/09/06 01:18:05;;;;;;;31.93;24.10;;;;;;;;;;5014524;28;20642;-71
2021/09/06 01:20:32;;;;;;;36.93;24.63;;;;;;;;;;5013938;28;20223;-71
2021/09/06 01:22:58;;;;;;;35.10;22.80;;;;;;;;;;5012037;28;20247;-72
2021/09/06 01:25:24;;;;;;;33.77;23.70;;;;;;;;;;5014404;28;20219;-71
2021/09/06 01:27:52;;;;;;;36.00;24.73;;;;;;;;;;5014083;28;20268;-71
2021/09/06 01:30:19;;;;;;;30.63;23.77;;;;;;;;;;5013409;28;20211;-72
2021/09/06 01:32:45;;;;;;;29.97;23.17;;;;;;;;;;5013535;28;20211;-72
2021/09/06 01:35:11;;;;;;;35.80;25.40;;;;;;;;;;5012663;28;20248;-71
2021/09/06 01:37:39;;;;;;;31.17;23.33;;;;;;;;;;5013519;28;20317;-71
2021/09/06 01:40:06;;;;;;;37.30;25.67;;;;;;;;;;5013018;28;20278;-71
2021/09/06 01:42:33;;;;;;;37.10;25.93;;;;;;;;;;5011801;28;20245;-71
2021/09/06 01:45:02;;;;;;;35.97;24.80;;;;;;;;;;5013550;28;20672;-71
2021/09/06 01:47:28;;;;;;;31.77;25.40;;;;;;;;;;5012829;28;20227;-71
2021/09/06 01:49:55;;;;;;;40.63;25.50;;;;;;;;;;5013141;28;20690;-71
2021/09/06 01:52:22;;;;;;;33.93;24.70;;;;;;;;;;5011967;28;20235;-72
2021/09/06 01:54:49;;;;;;;33.47;23.80;;;;;;;;;;5010548;28;20211;-72
2021/09/06 01:57:15;;;;;;;37.40;25.10;;;;;;;;;;5012241;28;20235;-71
2021/09/06 01:59:41;;;;;;;41.73;25.97;;;;;;;;;;5013738;28;20224;-71
2021/09/06 02:02:09;;;;;;;33.50;23.30;;;;;;;;;;5012453;28;20215;-71
2021/09/06 02:04:35;;;;;;;38.53;26.43;;;;;;;;;;5012745;28;20266;-71
2021/09/06 02:07:02;;;;;;;38.70;26.03;;;;;;;;;;5011531;28;20270;-71
2021/09/06 02:09:28;;;;;;;38.63;26.17;;;;;;;;;;5013244;28;20350;-72
2021/09/06 02:11:55;;;;;;;34.50;24.80;;;;;;;;;;5012011;28;20216;-71
2021/09/06 02:14:21;;;;;;;40.03;24.83;;;;;;;;;;5011069;28;20239;-71
2021/09/06 02:16:47;;;;;;;34.27;25.07;;;;;;;;;;5012195;28;20243;-71
2021/09/06 02:19:15;;;;;;;36.37;27.33;;;;;;;;;;5010835;28;20293;-71
2021/09/06 02:21:41;;;;;;;33.90;25.60;;;;;;;;;;5012693;28;20227;-71
2021/09/06 02:24:09;;;;;;;35.47;26.40;;;;;;;;;;5011171;28;20455;-71
2021/09/06 02:26:36;;;;;;;39.20;26.67;;;;;;;;;;5012925;28;20635;-71
2021/09/06 02:29:03;;;;;;;36.03;25.33;;;;;;;;;;5011681;28;20215;-71
2021/09/06 02:31:29;;;;;;;39.17;27.97;;;;;;;;;;5011719;28;20215;-71
2021/09/06 02:33:56;;;;;;;38.57;26.77;;;;;;;;;;5011215;28;20220;-71
2021/09/06 02:36:23;;;;;;;40.30;26.70;;;;;;;;;;5012675;28;20278;-72
2021/09/06 02:38:50;;;;;;;38.80;25.37;;;;;;;;;;5010795;28;20749;-71
2021/09/06 02:41:16;;;;;;;34.10;23.43;;;;;;;;;;5013541;28;20219;-71
2021/09/06 02:43:43;;;;;;;34.73;26.27;;;;;;;;;;5010933;28;20211;-71
2021/09/06 02:46:09;;;;;;;36.77;26.40;;;;;;;;;;5011192;28;20667;-71
2021/09/06 02:48:36;;;;;;;42.87;27.90;;;;;;;;;;5013672;28;20218;-71
2021/09/06 02:51:02;;;;;;;37.73;26.07;;;;;;;;;;5010652;28;20662;-71
2021/09/06 02:53:30;;;;;;;32.97;24.17;;;;;;;;;;5011378;28;20229;-71
2021/09/06 02:55:56;;;;;;;41.00;27.10;;;;;;;;;;5012003;28;20220;-71
2021/09/06 02:58:22;;;;;;;36.47;24.60;;;;;;;;;;5013107;28;20231;-71
2021/09/06 03:00:49;;;;;;;35.07;25.30;;;;;;;;;;5011993;28;20272;-71
2021/09/06 03:03:15;;;;;;;37.13;26.23;;;;;;;;;;5012896;28;20286;-71
2021/09/06 03:05:42;;;;;;;40.40;29.07;;;;;;;;;;5012560;28;20286;-72
2021/09/06 03:08:08;;;;;;;38.43;26.20;;;;;;;;;;5011273;28;20302;-71
2021/09/06 03:10:36;;;;;;;33.13;23.77;;;;;;;;;;5011888;28;20278;-71
2021/09/06 03:13:02;;;;;;;36.27;24.43;;;;;;;;;;5011059;28;20238;-71
2021/09/06 03:15:28;;;;;;;35.63;25.70;;;;;;;;;;5012544;28;21079;-71
2021/09/06 03:17:55;;;;;;;34.07;23.63;;;;;;;;;;5012160;28;20298;-71
2021/09/06 03:20:21;;;;;;;38.20;25.97;;;;;;;;;;5012268;28;20222;-71
2021/09/06 03:22:48;;;;;;;34.60;25.33;;;;;;;;;;5010747;28;20762;-71
2021/09/06 03:25:14;;;;;;;35.83;26.30;;;;;;;;;;5010451;28;21197;-71
2021/09/06 03:27:42;;;;;;;40.30;27.73;;;;;;;;;;5010080;28;20222;-71
2021/09/06 03:30:09;;;;;;;37.33;25.87;;;;;;;;;;5011290;28;20805;-72
2021/09/06 03:32:36;;;;;;;43.27;27.83;;;;;;;;;;5010557;28;20223;-71
2021/09/06 03:35:02;;;;;;;33.03;24.93;;;;;;;;;;5011158;28;20251;-71
2021/09/06 03:37:29;;;;;;;39.70;26.50;;;;;;;;;;5010629;28;20291;-71
2021/09/06 03:39:55;;;;;;;39.67;26.83;;;;;;;;;;5011227;28;20298;-72
2021/09/06 03:42:22;;;;;;;36.67;26.13;;;;;;;;;;5009922;28;20215;-72
2021/09/06 03:44:50;;;;;;;34.23;24.30;;;;;;;;;;5011752;28;20223;-71
2021/09/06 03:47:16;;;;;;;40.73;26.63;;;;;;;;;;5013465;28;20301;-71
2021/09/06 03:49:42;;;;;;;38.50;26.50;;;;;;;;;;5010748;28;20269;-71
2021/09/06 03:52:09;;;;;;;37.50;26.20;;;;;;;;;;5011371;28;20236;-71
2021/09/06 03:54:35;;;;;;;35.57;25.50;;;;;;;;;;5011355;28;20297;-71
2021/09/06 03:57:02;;;;;;;38.50;26.00;;;;;;;;;;5011544;28;20218;-72
2021/09/06 03:59:28;;;;;;;34.80;25.87;;;;;;;;;;5009640;28;20231;-71
2021/09/06 04:01:56;;;;;;;40.27;26.77;;;;;;;;;;5010494;28;20207;-71
2021/09/06 04:04:22;;;;;;;43.33;29.43;;;;;;;;;;5011392;28;20269;-71
2021/09/06 04:06:48;;;;;;;40.13;28.17;;;;;;;;;;5012673;28;20713;-71
2021/09/06 04:09:15;;;;;;;40.93;27.87;;;;;;;;;;5010977;28;20621;-72
2021/09/06 04:11:42;;;;;;;47.80;29.60;;;;;;;;;;5010007;28;20617;-71
2021/09/06 04:14:12;;;;;;;49.03;30.40;;;;;;;;;;5011124;28;20691;-71
2021/09/06 04:16:38;;;;;;;37.27;25.63;;;;;;;;;;5009043;28;20200;-71
2021/09/06 04:19:06;;;;;;;42.53;26.73;;;;;;;;;;5009847;28;20231;-71
2021/09/06 04:21:32;;;;;;;37.60;26.37;;;;;;;;;;5011481;28;20232;-71
2021/09/06 04:23:59;;;;;;;38.57;27.07;;;;;;;;;;5010798;28;20274;-71
2021/09/06 04:26:25;;;;;;;42.70;28.03;;;;;;;;;;5010104;28;20215;-71
2021/09/06 04:28:52;;;;;;;42.00;27.33;;;;;;;;;;5010628;28;20204;-72
2021/09/06 04:31:18;;;;;;;42.80;27.27;;;;;;;;;;5011878;28;20239;-74
2021/09/06 04:33:45;;;;;;;41.87;27.63;;;;;;;;;;5008974;28;20212;-74
2021/09/06 04:36:12;;;;;;;41.57;28.00;;;;;;;;;;5009607;28;20278;-74
2021/09/06 04:38:39;;;;;;;43.67;28.87;;;;;;;;;;5010648;28;20235;-74
2021/09/06 04:41:05;;;;;;;45.47;28.53;;;;;;;;;;5009783;28;20266;-74
2021/09/06 04:43:32;;;;;;;41.77;29.30;;;;;;;;;;5014155;28;20669;-74
2021/09/06 04:45:58;;;;;;;43.83;29.53;;;;;;;;;;5014620;28;20280;-73
2021/09/06 04:48:24;;;;;;;40.47;28.93;;;;;;;;;;5012571;28;20294;-74
2021/09/06 04:50:51;;;;;;;52.43;30.73;;;;;;;;;;5013146;28;20211;-74
2021/09/06 04:53:18;;;;;;;46.27;29.57;;;;;;;;;;5015134;28;20269;-73
2021/09/06 04:55:45;;;;;;;40.23;28.73;;;;;;;;;;5013925;28;20215;-74
2021/09/06 04:58:11;;;;;;;45.07;29.53;;;;;;;;;;5013553;28;20237;-74
2021/09/06 05:00:38;;;;;;;36.40;25.70;;;;;;;;;;5013836;28;20208;-74
2021/09/06 05:03:04;;;;;;;34.43;24.30;;;;;;;;;;5010927;28;20211;-74
2021/09/06 05:05:31;;;;;;;39.23;27.20;;;;;;;;;;5013440;28;20219;-74
2021/09/06 05:07:57;;;;;;;47.50;28.70;;;;;;;;;;5011055;28;20266;-74
2021/09/06 05:10:25;;;;;;;46.33;27.90;;;;;;;;;;5013517;28;20253;-74
2021/09/06 05:12:51;;;;;;;38.47;26.60;;;;;;;;;;5012068;28;20666;-74
2021/09/06 05:15:18;;;;;;;41.87;27.63;;;;;;;;;;5013126;28;20247;-74
2021/09/06 05:17:44;;;;;;;40.03;26.40;;;;;;;;;;5011954;28;20543;-74
2021/09/06 05:20:11;;;;;;;44.97;28.80;;;;;;;;;;5013582;28;20274;-74
2021/09/06 05:22:37;;;;;;;37.77;27.20;;;;;;;;;;5011398;28;20239;-74
2021/09/06 05:25:05;;;;;;;41.43;27.57;;;;;;;;;;5011314;28;20226;-74
2021/09/06 05:27:32;;;;;;;42.23;28.50;;;;;;;;;;5012503;28;20264;-74
2021/09/06 05:29:59;;;;;;;42.37;26.23;;;;;;;;;;5011787;28;20212;-74
2021/09/06 05:32:25;;;;;;;46.90;29.33;;;;;;;;;;5011758;28;20284;-74
2021/09/06 05:34:52;;;;;;;47.23;30.07;;;;;;;;;;5012842;28;20251;-74
2021/09/06 05:37:18;;;;;;;41.30;27.77;;;;;;;;;;5013415;28;20305;-74
2021/09/06 05:39:44;;;;;;;49.40;30.10;;;;;;;;;;5012046;28;20236;-74
2021/09/06 05:42:11;;;;;;;44.87;30.37;;;;;;;;;;5012412;28;20376;-74
2021/09/06 05:44:39;;;;;;;53.43;29.10;;;;;;;;;;5011358;28;21042;-74
2021/09/06 05:47:05;;;;;;;49.87;29.20;;;;;;;;;;5013220;28;20270;-74
2021/09/06 05:49:31;;;;;;;46.83;29.43;;;;;;;;;;5012673;28;20219;-74
2021/09/06 05:51:58;;;;;;;43.43;28.40;;;;;;;;;;5012680;28;20242;-74
2021/09/06 05:54:24;;;;;;;41.40;28.57;;;;;;;;;;5012722;28;20216;-74
2021/09/06 05:56:51;;;;;;;38.63;27.37;;;;;;;;;;5014679;28;20615;-74
2021/09/06 05:59:17;;;;;;;35.07;26.87;;;;;;;;;;5013092;28;20757;-73
2021/09/06 06:01:45;;;;;;;35.33;28.17;;;;;;;;;;5012146;28;20245;-73
2021/09/06 06:04:11;;;;;;;32.97;25.73;;;;;;;;;;5013657;28;20208;-74
2021/09/06 06:06:38;;;;;;;41.90;26.73;;;;;;;;;;5010142;28;20224;-74
2021/09/06 06:09:04;;;;;;;37.03;27.67;;;;;;;;;;5011784;28;20200;-74
2021/09/06 06:11:31;;;;;;;33.13;26.17;;;;;;;;;;5012806;28;20214;-74
2021/09/06 06:13:57;;;;;;;34.43;25.87;;;;;;;;;;5012108;28;20306;-74
2021/09/06 06:16:24;;;;;;;37.90;26.50;;;;;;;;;;5011588;28;20866;-74
2021/09/06 06:18:51;;;;;;;29.33;24.43;;;;;;;;;;5009951;28;20655;-74
2021/09/06 06:21:18;;;;;;;35.23;25.60;;;;;;;;;;5010528;28;20223;-74
2021/09/06 06:23:44;;;;;;;33.27;23.47;;;;;;;;;;5012665;28;20287;-74
2021/09/06 06:26:11;;;;;;;32.70;25.83;;;;;;;;;;5009778;28;20293;-74
2021/09/06 06:28:37;;;;;;;37.53;24.97;;;;;;;;;;5010862;28;20218;-74
2021/09/06 06:31:03;;;;;;;31.80;25.40;;;;;;;;;;5009834;28;20349;-74
2021/09/06 06:33:30;;;;;;;27.67;22.77;;;;;;;;;;5008561;28;20667;-74
2021/09/06 06:35:59;;;;;;;26.97;22.77;;;;;;;;;;5010962;28;20343;-74
2021/09/06 06:38:26;;;;;;;30.93;24.07;;;;;;;;;;5009533;28;20222;-74
2021/09/06 06:40:52;;;;;;;29.50;24.30;;;;;;;;;;5009967;28;20662;-74
2021/09/06 06:43:19;;;;;;;28.17;24.27;;;;;;;;;;5010482;28;20728;-74
2021/09/06 06:45:45;;;;;;;28.93;23.47;;;;;;;;;;5010192;28;20211;-74
2021/09/06 06:48:12;;;;;;;26.57;23.30;;;;;;;;;;5009110;28;20230;-74
2021/09/06 06:50:38;;;;;;;24.73;21.70;;;;;;;;;;5008979;28;20215;-74
2021/09/06 06:53:06;;;;;;;24.37;20.33;;;;;;;;;;5007939;28;21124;-74
2021/09/06 06:55:32;;;;;;;25.97;21.77;;;;;;;;;;5008857;28;20785;-74
2021/09/06 06:57:59;;;;;;;31.23;23.97;;;;;;;;;;5009353;28;20217;-74
2021/09/06 07:00:25;;;;;;;26.53;20.87;;;;;;;;;;5010801;28;20274;-74
2021/09/06 07:02:52;;;;;;;28.13;23.23;;;;;;;;;;5011578;28;20754;-74
2021/09/06 07:05:19;;;;;;;29.30;22.07;;;;;;;;;;5005869;28;20211;-74
2021/09/06 07:07:45;;;;;;;26.73;22.77;;;;;;;;;;5004823;28;20243;-74
2021/09/06 07:10:13;;;;;;;28.27;22.63;;;;;;;;;;5029754;22;20236;-88
2021/09/06 07:12:40;;;;;;;26.73;21.67;;;;;;;;;;5022133;28;20200;-88
2021/09/06 07:15:08;;;;;;;25.17;20.60;;;;;;;;;;5012032;28;20255;-89
2021/09/06 07:17:36;;;;;;;29.70;22.03;;;;;;;;;;4998473;28;20230;-89
2021/09/06 07:20:04;;;;;;;25.53;21.03;;;;;;;;;;4997929;28;20229;-88
2021/09/06 07:22:30;;;;;;;27.77;22.30;;;;;;;;;;4996491;28;20229;-88
2021/09/06 07:24:58;;;;;;;23.53;21.03;;;;;;;;;;4999830;28;20228;-89
2021/09/06 07:27:26;;;;;;;25.63;21.17;;;;;;;;;;4997748;28;20329;-88
2021/09/06 07:29:53;;;;;;;27.77;22.30;;;;;;;;;;4997453;28;20627;-90
2021/09/06 07:32:19;;;;;;;22.80;20.23;;;;;;;;;;4993346;28;20288;-90
2021/09/06 07:34:50;;;;;;;22.60;19.93;;;;;;;;;;4996828;28;20199;-89
2021/09/06 07:37:17;;;;;;;25.20;21.20;;;;;;;;;;4996005;28;20242;-88
2021/09/06 07:39:47;;;;;;;26.53;21.40;;;;;;;;;;4998466;28;20232;-89
2021/09/06 07:42:14;;;;;;;22.97;18.73;;;;;;;;;;4999183;28;20221;-88
2021/09/06 07:44:42;;;;;;;22.77;19.80;;;;;;;;;;4995912;28;20212;-88
2021/09/06 07:47:08;;;;;;;23.70;20.53;;;;;;;;;;4998702;28;20755;-88
2021/09/06 07:49:35;;;;;;;25.13;19.90;;;;;;;;;;4999931;28;20224;-88
2021/09/06 07:52:01;;;;;;;26.50;20.13;;;;;;;;;;4997975;28;20225;-89
2021/09/06 07:54:28;;;;;;;25.17;21.17;;;;;;;;;;4997895;28;20216;-88
2021/09/06 07:56:55;;;;;;;27.07;22.43;;;;;;;;;;4998952;28;20205;-88
2021/09/06 07:59:22;;;;;;;27.47;21.83;;;;;;;;;;4998947;28;20233;-89
2021/09/06 08:01:50;;;;;;;29.37;22.93;;;;;;;;;;4996430;28;20204;-89
2021/09/06 08:04:17;;;;;;;25.10;22.60;;;;;;;;;;4996799;28;20220;-87
2021/09/06 08:06:44;;;;;;;26.43;23.33;;;;;;;;;;5001124;28;20224;-90
2021/09/06 08:09:11;;;;;;;26.83;21.70;;;;;;;;;;4996938;28;20243;-88
2021/09/06 08:11:37;;;;;;;24.47;21.07;;;;;;;;;;4996355;28;20244;-88
2021/09/06 08:14:05;;;;;;;24.00;21.13;;;;;;;;;;4997094;28;20223;-88
2021/09/06 08:16:31;;;;;;;27.93;24.97;;;;;;;;;;4997937;28;20603;-89
2021/09/06 08:18:59;;;;;;;26.23;22.00;;;;;;;;;;5001100;28;20212;-88
2021/09/06 08:21:26;;;;;;;25.10;22.47;;;;;;;;;;5001476;28;20224;-88
2021/09/06 08:23:52;;;;;;;27.40;22.00;;;;;;;;;;5002928;28;20219;-87
2021/09/06 08:26:21;;;;;;;27.30;22.93;;;;;;;;;;5003528;28;20220;-89
2021/09/06 08:28:47;;;;;;;31.23;23.83;;;;;;;;;;5001506;28;20207;-88
2021/09/06 08:31:14;;;;;;;111.63;28.10;;;;;;;;;;5001633;28;20211;-89
2021/09/06 08:33:41;;;;;;;26.90;22.57;;;;;;;;;;5004167;28;20235;-88
2021/09/06 08:36:10;;;;;;;25.53;22.73;;;;;;;;;;4997387;28;20583;-88
2021/09/06 08:38:36;;;;;;;26.23;23.53;;;;;;;;;;5002280;28;20232;-90
2021/09/06 08:41:03;;;;;;;25.00;22.30;;;;;;;;;;5004172;28;21102;-88
2021/09/06 08:43:32;;;;;;;27.27;22.77;;;;;;;;;;5007102;28;20584;-89
2021/09/06 08:45:59;;;;;;;31.97;24.60;;;;;;;;;;4999305;28;20580;-89
2021/09/06 08:48:25;;;;;;;25.40;22.63;;;;;;;;;;5000974;28;20208;-90
2021/09/06 08:50:52;;;;;;;28.40;24.53;;;;;;;;;;4998026;28;20277;-90
2021/09/06 08:53:22;;;;;;;26.03;22.93;;;;;;;;;;5003006;28;20255;-89
2021/09/06 08:55:49;;;;;;;33.50;22.97;;;;;;;;;;5002963;28;20237;-89
2021/09/06 08:58:17;;;;;;;26.03;22.73;;;;;;;;;;5006647;28;20215;-89
2021/09/06 09:00:46;;;;;;;27.47;23.17;;;;;;;;;;4998457;28;20692;-88
2021/09/06 09:03:13;;;;;;;27.33;22.87;;;;;;;;;;4997958;28;20225;-88
2021/09/06 09:05:40;;;;;;;23.63;20.37;;;;;;;;;;4999226;28;20208;-88
2021/09/06 09:08:06;;;;;;;24.23;20.90;;;;;;;;;;5004048;28;20206;-88
2021/09/06 09:10:38;;;;;;;24.57;22.07;;;;;;;;;;4996621;28;20242;-87
2021/09/06 09:13:06;;;;;;;24.07;20.67;;;;;;;;;;4999681;28;20253;-90
2021/09/06 09:15:33;;;;;;;26.67;20.53;;;;;;;;;;5003097;28;20241;-87
2021/09/06 09:18:00;;;;;;;25.00;22.43;;;;;;;;;;4997161;28;20217;-89
2021/09/06 09:20:37;;;;;;;25.07;21.97;;;;;;;;;;4997074;28;20254;-88
2021/09/06 09:23:04;;;;;;;30.10;23.03;;;;;;;;;;4981475;28;20628;-88
2021/09/06 09:25:31;;;;;;;29.40;26.13;;;;;;;;;;4997781;28;20227;-88
2021/09/06 09:27:59;;;;;;;28.93;22.93;;;;;;;;;;4994920;28;20216;-88
2021/09/06 09:30:28;;;;;;;29.03;22.53;;;;;;;;;;5004399;28;20231;-88
2021/09/06 09:33:06;;;;;;;26.53;23.43;;;;;;;;;;5004548;28;20220;-88
2021/09/06 09:35:33;;;;;;;27.97;23.00;;;;;;;;;;5002441;28;20785;-87
2021/09/06 09:38:04;;;;;;;26.27;23.73;;;;;;;;;;5005956;28;20715;-88
2021/09/06 09:40:35;;;;;;;36.50;24.40;;;;;;;;;;5000560;28;20270;-87
2021/09/06 09:43:03;;;;;;;28.33;25.42;;;;;;;;;;4999341;28;20934;-88
2021/09/06 09:45:30;;;;;;;24.23;21.67;;;;;;;;;;5000953;28;20223;-89
2021/09/06 09:47:59;;;;;;;26.13;23.43;;;;;;;;;;5003637;28;20669;-88
2021/09/06 09:50:29;;;;;;;25.80;23.20;;;;;;;;;;5006208;28;20224;-88
2021/09/06 09:52:56;;;;;;;25.63;22.80;;;;;;;;;;4997833;28;20232;-88
2021/09/06 09:55:24;;;;;;;26.80;23.93;;;;;;;;;;4994022;28;20205;-89
2021/09/06 09:57:51;;;;;;;28.13;25.40;;;;;;;;;;5000018;28;20212;-89
2021/09/06 10:00:20;;;;;;;25.57;22.97;;;;;;;;;;4994142;28;20259;-89
2021/09/06 10:02:52;;;;;;;26.07;23.37;;;;;;;;;;4995801;28;20565;-89
2021/09/06 10:05:19;;;;;;;25.53;22.93;;;;;;;;;;5006254;28;20219;-90
2021/09/06 10:07:47;;;;;;;26.40;23.53;;;;;;;;;;5002551;28;20243;-89
2021/09/06 10:10:18;;;;;;;26.63;24.03;;;;;;;;;;5002834;28;20248;-89
2021/09/06 10:12:45;;;;;;;28.17;24.97;;;;;;;;;;4998165;28;20218;-89
2021/09/06 10:15:12;;;;;;;27.23;24.53;;;;;;;;;;4996865;28;20235;-89
2021/09/06 10:17:43;;;;;;;24.87;22.20;;;;;;;;;;4994818;28;20214;-89
2021/09/06 10:20:21;;;;;;;24.93;22.37;;;;;;;;;;5002186;28;20237;-90
2021/09/06 10:23:00;;;;;;;25.70;23.33;;;;;;;;;;5001819;28;20233;-89
2021/09/06 10:25:30;;;;;;;24.23;21.73;;;;;;;;;;4998011;28;20662;-89
2021/09/06 10:28:02;;;;;;;25.40;22.70;;;;;;;;;;4999304;28;20218;-89
2021/09/06 10:30:37;;;;;;;24.90;22.50;;;;;;;;;;5000255;28;20244;-88
2021/09/06 10:33:07;;;;;;;22.83;20.53;;;;;;;;;;4999114;28;20214;-89
2021/09/06 10:35:35;;;;;;;21.77;19.67;;;;;;;;;;4999088;28;20212;-89
2021/09/06 10:38:05;;;;;;;20.77;18.67;;;;;;;;;;4998508;28;20306;-89
2021/09/06 10:40:34;;;;;;;22.37;20.07;;;;;;;;;;5002337;28;20240;-87
2021/09/06 10:43:12;;;;;;;22.70;20.48;;;;;;;;;;4999639;28;20462;-86
2021/09/06 10:45:39;;;;;;;22.07;19.83;;;;;;;;;;4999721;28;20714;-86
2021/09/06 10:48:09;;;;;;;18.60;16.77;;;;;;;;;;5002246;28;20217;-87
2021/09/06 10:50:37;;;;;;;20.57;16.47;;;;;;;;;;4998402;28;20205;-87
2021/09/06 10:53:04;;;;;;;20.20;18.03;;;;;;;;;;4995747;28;20228;-87
2021/09/06 10:55:31;;;;;;;19.87;17.77;;;;;;;;;;4996595;28;20213;-87
2021/09/06 10:58:00;;;;;;;19.00;16.97;;;;;;;;;;5000269;28;20310;-87
2021/09/06 11:00:26;;;;;;;24.53;17.40;;;;;;;;;;4998812;28;20256;-87
2021/09/06 11:02:53;;;;;;;20.83;18.73;;;;;;;;;;4996831;28;20243;-87
2021/09/06 11:05:22;;;;;;;22.97;20.67;;;;;;;;;;4999035;28;20204;-87
2021/09/06 11:07:50;;;;;;;19.07;17.07;;;;;;;;;;4999395;28;20244;-87
2021/09/06 11:10:19;;;;;;;20.30;18.20;;;;;;;;;;4998487;28;20243;-86
2021/09/06 11:12:54;;;;;;;18.73;16.57;;;;;;;;;;4997398;28;20301;-86
2021/09/06 11:15:24;;;;;;;17.67;15.87;;;;;;;;;;4993489;28;20251;-86
2021/09/06 11:17:59;;;;;;;19.10;17.20;;;;;;;;;;5000450;28;20204;-87
2021/09/06 11:20:28;;;;;;;17.10;15.40;;;;;;;;;;4994841;28;20238;-87
2021/09/06 11:22:58;;;;;;;17.70;15.90;;;;;;;;;;5002265;28;20327;-87
2021/09/06 11:25:26;;;;;;;16.60;13.93;;;;;;;;;;4992905;28;20224;-86
2021/09/06 11:27:53;;;;;;;17.83;16.00;;;;;;;;;;5002385;28;20220;-86
2021/09/06 11:30:32;;;;;;;16.23;14.53;;;;;;;;;;5002173;28;20232;-91
2021/09/06 11:48:24;;;;;;;18.23;16.30;;;;;;;;;;5002314;28;20222;-92
2021/09/06 11:56:52;;;;;;;14.83;13.43;;;;;;;;;;5004282;28;20206;-92
2021/09/06 12:05:15;;;;;;;17.80;16.20;;;;;;;;;;4997807;28;20298;-92
2021/09/06 12:08:14;;;;;;;19.03;17.00;;;;;;;;;;4999893;28;20232;-93
2021/09/06 12:19:43;;;;;;;19.60;17.60;;;;;;;;;;4999592;28;20220;-91
2021/09/06 12:22:16;;;;;;;18.23;16.43;;;;;;;;;;4999081;28;20354;-92
2021/09/06 12:24:44;;;;;;;18.67;16.93;;;;;;;;;;5000625;28;20306;-91
2021/09/06 12:30:01;;;;;;;16.97;15.43;;;;;;;;;;5004220;28;20217;-91
2021/09/06 12:32:34;;;;;;;22.00;19.90;;;;;;;;;;4999188;28;20214;-93
2021/09/06 12:38:03;;;;;;;20.67;18.77;;;;;;;;;;4999349;28;20240;-93
2021/09/06 12:46:50;;;;;;;19.03;15.00;;;;;;;;;;4998037;28;20231;-92
2021/09/06 12:52:15;;;;;;;19.43;16.37;;;;;;;;;;4997279;28;20264;-93
2021/09/06 12:57:27;;;;;;;17.97;16.17;;;;;;;;;;5001664;28;20220;-93
2021/09/06 13:00:08;;;;;;;18.50;16.57;;;;;;;;;;4998684;28;20219;-92
2021/09/06 13:02:45;;;;;;;17.80;14.87;;;;;;;;;;5004173;28;20266;-92
2021/09/06 13:05:25;;;;;;;15.40;13.83;;;;;;;;;;5002471;28;20231;-92
2021/09/06 13:10:51;;;;;;;17.57;15.87;;;;;;;;;;4988687;28;20309;-91
2021/09/06 13:16:12;;;;;;;21.43;17.67;;;;;;;;;;5006301;28;20313;-92
2021/09/06 13:18:44;;;;;;;20.60;16.83;;;;;;;;;;5005245;28;20210;-91
2021/09/06 13:21:24;;;;;;;20.97;18.23;;;;;;;;;;4999840;28;20209;-91
2021/09/06 13:23:52;;;;;;;20.93;18.93;;;;;;;;;;5002636;28;20217;-92
2021/09/06 13:31:52;;;;;;;25.80;22.80;;;;;;;;;;5001684;28;20242;-93
2021/09/06 13:34:21;;;;;;;24.03;21.43;;;;;;;;;;4998309;28;20840;-93
2021/09/06 13:36:58;;;;;;;25.23;21.07;;;;;;;;;;5001961;28;20236;-92
2021/09/06 13:39:36;;;;;;;24.67;20.90;;;;;;;;;;5006962;28;20227;-93
2021/09/06 13:45:49;;;;;;;21.40;17.40;;;;;;;;;;4958475;28;20800;-93
2021/09/06 13:48:39;;;;;;;18.77;16.73;;;;;;;;;;4959491;28;20262;-93
2021/09/06 13:53:56;;;;;;;20.37;17.27;;;;;;;;;;5001192;28;20201;-92
2021/09/06 13:56:27;;;;;;;23.83;17.47;;;;;;;;;;5002347;28;20216;-93
2021/09/06 13:58:57;;;;;;;20.30;18.10;;;;;;;;;;5002054;28;20224;-92
2021/09/06 14:01:28;;;;;;;19.67;17.63;;;;;;;;;;4998377;28;20270;-92
2021/09/06 14:06:41;;;;;;;21.33;17.20;;;;;;;;;;5002081;28;20234;-92
2021/09/06 14:09:33;;;;;;;21.13;14.27;;;;;;;;;;4999622;28;20217;-92
2021/09/06 14:12:11;;;;;;;17.27;12.43;;;;;;;;;;4996955;28;20238;-92
2021/09/06 14:14:40;;;;;;;14.17;10.90;;;;;;;;;;4999334;28;20212;-92
2021/09/06 14:17:09;;;;;;;13.03;11.53;;;;;;;;;;5003419;28;20210;-92
2021/09/06 14:19:42;;;;;;;19.87;12.07;;;;;;;;;;4999866;28;20215;-93
2021/09/06 14:22:26;;;;;;;19.20;13.00;;;;;;;;;;5002259;28;20613;-93
2021/09/06 14:25:03;;;;;;;17.23;14.60;;;;;;;;;;5004276;28;20218;-92
2021/09/06 14:28:22;;;;;;;18.13;16.23;;;;;;;;;;5000128;28;20264;-92
2021/09/06 14:30:58;;;;;;;20.13;14.73;;;;;;;;;;5006609;28;20268;-93
2021/09/06 14:39:04;;;;;;;17.83;16.07;;;;;;;;;;4999227;28;20297;-92
2021/09/06 14:41:38;;;;;;;18.90;16.13;;;;;;;;;;5002006;28;20214;-91
2021/09/06 14:47:01;;;;;;;16.13;13.57;;;;;;;;;;5003437;28;20256;-92
2021/09/06 14:49:40;;;;;;;17.77;14.67;;;;;;;;;;4995636;28;20294;-93
2021/09/06 14:54:52;;;;;;;18.30;14.33;;;;;;;;;;5001078;28;20233;-92
2021/09/06 14:57:28;;;;;;;20.03;15.00;;;;;;;;;;5003150;28;20211;-93
2021/09/06 15:02:45;;;;;;;21.07;16.20;;;;;;;;;;4997759;28;20230;-92
2021/09/06 15:22:37;;;;;;;24.13;15.60;;;;;;;;;;4999793;28;20240;-92
2021/09/06 15:28:12;;;;;;;19.47;16.40;;;;;;;;;;4997164;28;20219;-93
2021/09/06 15:37:16;;;;;;;25.27;16.50;;;;;;;;;;4999538;28;20235;-93
2021/09/06 15:39:51;;;;;;;19.70;16.40;;;;;;;;;;5003028;28;20218;-93
2021/09/06 15:42:34;;;;;;;22.03;16.23;;;;;;;;;;4987363;28;20238;-93
2021/09/06 15:45:06;;;;;;;21.43;17.20;;;;;;;;;;4998498;28;20253;-93
2021/09/06 15:47:39;;;;;;;17.23;15.43;;;;;;;;;;5000628;28;20286;-93
2021/09/06 15:53:06;;;;;;;21.87;17.77;;;;;;;;;;4999960;28;20224;-93
2021/09/06 16:16:48;;;;;;;20.30;14.77;;;;;;;;;;5029090;23;20244;-89
2021/09/06 16:19:14;;;;;;;26.83;16.60;;;;;;;;;;5026974;28;20189;-88
2021/09/06 16:21:41;;;;;;;21.60;16.80;;;;;;;;;;5027171;28;20243;-89
2021/09/06 16:24:10;;;;;;;22.10;16.67;;;;;;;;;;5028841;28;20213;-90
2021/09/06 16:26:36;;;;;;;20.93;15.57;;;;;;;;;;5033619;28;20215;-90
2021/09/06 16:29:03;;;;;;;21.20;15.90;;;;;;;;;;5032598;28;20372;-90
2021/09/06 16:31:30;;;;;;;18.33;15.07;;;;;;;;;;5028938;28;20215;-90
2021/09/06 16:33:58;;;;;;;19.03;16.07;;;;;;;;;;5025905;28;20848;-91
2021/09/06 16:36:24;;;;;;;18.60;15.63;;;;;;;;;;5027064;28;20858;-90
2021/09/06 16:38:51;;;;;;;18.00;16.10;;;;;;;;;;5029770;28;20212;-90
2021/09/06 16:41:17;;;;;;;18.93;15.90;;;;;;;;;;5031590;28;20577;-90
2021/09/06 16:43:45;;;;;;;24.37;16.37;;;;;;;;;;5025612;28;20207;-90